createdAt,value
2022-08-02T00:02:40.737Z,22.19
2022-08-02T00:05:27.097Z,22.20
2022-08-02T00:08:13.116Z,22.10
2022-08-02T00:10:59.261Z,22.16
2022-08-02T00:13:45.519Z,22.11
2022-08-02T00:16:37.441Z,22.07
2022-08-02T00:19:24.189Z,21.93
2022-08-02T00:22:10.356Z,22.01
2022-08-02T00:24:56.674Z,21.98
2022-08-02T00:27:42.657Z,21.87
2022-08-02T00:30:28.412Z,21.91
2022-08-02T00:33:14.826Z,21.90
2022-08-02T00:36:00.689Z,21.84
2022-08-02T00:38:48.074Z,21.86
2022-08-02T00:41:33.989Z,21.82
2022-08-02T00:44:21.250Z,21.76
2022-08-02T00:47:07.429Z,21.81
2022-08-02T00:49:53.358Z,21.75
2022-08-02T00:52:39.321Z,21.77
2022-08-02T00:55:31.283Z,21.72
2022-08-02T00:58:17.350Z,21.68
2022-08-02T01:01:03.754Z,21.68
2022-08-02T01:03:49.997Z,21.63
2022-08-02T01:06:37.366Z,21.52
2022-08-02T01:09:23.260Z,21.56
2022-08-02T01:12:09.802Z,21.46
2022-08-02T01:15:00.451Z,21.46
2022-08-02T01:17:51.209Z,21.48
2022-08-02T01:20:49.791Z,21.41
2022-08-02T01:23:57.928Z,21.34
2022-08-02T01:27:21.273Z,21.36
2022-08-02T01:30:08.610Z,21.28
2022-08-02T01:32:58.949Z,21.20
2022-08-02T01:35:50.885Z,21.25
2022-08-02T01:38:43.833Z,21.18
2022-08-02T01:41:30.813Z,21.16
2022-08-02T01:44:17.859Z,21.12
2022-08-02T01:47:19.854Z,21.10
2022-08-02T01:50:06.307Z,20.96
2022-08-02T01:52:54.042Z,21.05
2022-08-02T01:55:57.055Z,21.03
2022-08-02T01:58:45.766Z,21.03
2022-08-02T02:01:33.395Z,20.99
2022-08-02T02:04:22.195Z,20.99
2022-08-02T02:07:08.689Z,20.88
2022-08-02T02:09:54.923Z,20.92
2022-08-02T02:12:43.151Z,20.88
2022-08-02T02:15:31.309Z,20.90
2022-08-02T02:18:23.773Z,20.84
2022-08-02T02:21:10.441Z,20.90
2022-08-02T02:23:56.637Z,20.83
2022-08-02T02:26:52.100Z,20.81
2022-08-02T02:29:43.301Z,20.87
2022-08-02T02:32:29.746Z,20.92
2022-08-02T02:35:16.750Z,20.91
2022-08-02T02:38:04.481Z,20.84
2022-08-02T02:40:50.628Z,20.90
2022-08-02T02:43:38.318Z,20.90
2022-08-02T02:46:26.267Z,20.87
2022-08-02T02:49:13.381Z,20.83
2022-08-02T02:51:59.614Z,20.87
2022-08-02T02:54:49.132Z,20.84
2022-08-02T02:57:37.218Z,20.75
2022-08-02T03:00:43.507Z,20.77
2022-08-02T03:03:30.132Z,20.68
2022-08-02T03:06:16.393Z,20.73
2022-08-02T03:09:02.202Z,20.75
2022-08-02T03:11:48.659Z,20.72
2022-08-02T03:14:35.047Z,20.62
2022-08-02T03:17:21.099Z,20.66
2022-08-02T03:20:10.043Z,20.66
2022-08-02T03:22:55.948Z,20.64
2022-08-02T03:25:41.829Z,20.60
2022-08-02T03:28:28.110Z,20.55
2022-08-02T03:31:14.096Z,20.55
2022-08-02T03:34:01.577Z,20.57
2022-08-02T03:36:49.347Z,20.54
2022-08-02T03:39:35.302Z,20.52
2022-08-02T03:42:21.616Z,20.49
2022-08-02T03:45:10.133Z,20.43
2022-08-02T03:47:58.749Z,20.41
2022-08-02T03:50:47.592Z,20.41
2022-08-02T03:53:34.183Z,20.50
2022-08-02T03:56:20.070Z,20.42
2022-08-02T03:59:11.414Z,20.44
2022-08-02T04:01:57.521Z,20.48
2022-08-02T04:04:43.521Z,20.45
2022-08-02T04:08:33.556Z,20.49
2022-08-02T04:10:55.931Z,20.48
2022-08-02T04:13:42.057Z,20.50
2022-08-02T04:16:33.923Z,20.48
2022-08-02T04:19:28.193Z,20.46
2022-08-02T04:22:24.573Z,20.46
2022-08-02T04:25:17.135Z,20.49
2022-08-02T04:28:16.658Z,20.51
2022-08-02T04:31:05.281Z,20.51
2022-08-02T04:33:51.179Z,20.55
2022-08-02T04:36:38.139Z,20.47
2022-08-02T04:39:24.735Z,20.50
2022-08-02T04:42:10.967Z,20.55
2022-08-02T04:44:58.076Z,20.51
2022-08-02T04:48:02.175Z,20.59
2022-08-02T04:50:50.482Z,20.62
2022-08-02T04:53:36.422Z,20.68
2022-08-02T04:56:22.246Z,20.74
2022-08-02T04:59:08.442Z,20.73
2022-08-02T05:01:54.613Z,20.78
2022-08-02T05:04:40.775Z,20.84
2022-08-02T05:07:26.802Z,20.94
2022-08-02T05:10:15.252Z,21.03
2022-08-02T05:13:01.184Z,21.05
2022-08-02T05:15:50.640Z,21.04
2022-08-02T05:18:36.802Z,21.11
2022-08-02T05:21:22.872Z,21.14
2022-08-02T05:24:09.764Z,21.25
2022-08-02T05:26:55.574Z,21.33
2022-08-02T05:29:41.655Z,21.27
2022-08-02T05:32:50.762Z,21.38
2022-08-02T05:35:36.914Z,21.38
2022-08-02T05:38:26.025Z,21.46
2022-08-02T05:41:12.476Z,21.45
2022-08-02T05:43:58.305Z,21.59
2022-08-02T05:46:44.182Z,21.66
2022-08-02T05:49:30.243Z,21.70
2022-08-02T05:52:18.418Z,21.74
2022-08-02T05:55:13.434Z,21.82
2022-08-02T05:58:26.911Z,21.72
2022-08-02T06:01:14.467Z,21.94
2022-08-02T06:04:01.142Z,22.02
2022-08-02T06:06:50.178Z,22.09
2022-08-02T06:09:36.272Z,22.11
2022-08-02T06:12:25.880Z,22.20
2022-08-02T06:15:15.075Z,22.20
2022-08-02T06:18:02.255Z,22.32
2022-08-02T06:20:50.432Z,22.44
2022-08-02T06:23:42.207Z,22.49
2022-08-02T06:26:44.972Z,22.59
2022-08-02T06:29:37.038Z,22.65
2022-08-02T06:32:26.879Z,22.77
2022-08-02T06:35:13.475Z,22.68
2022-08-02T06:38:03.182Z,22.84
2022-08-02T06:40:56.564Z,22.82
2022-08-02T06:44:27.390Z,22.89
2022-08-02T13:15:49.265Z,27.55
2022-08-02T13:18:19.469Z,27.98
2022-08-02T13:21:06.890Z,28.29
2022-08-02T13:23:54.693Z,28.66
2022-08-02T13:26:41.630Z,28.84
2022-08-02T13:29:27.740Z,29.16
2022-08-02T13:32:14.523Z,29.37
2022-08-02T13:35:01.288Z,29.58
2022-08-02T13:37:48.268Z,29.85
2022-08-02T13:40:49.232Z,30.00
2022-08-02T13:43:53.404Z,30.10
2022-08-02T13:46:45.499Z,30.25
2022-08-02T13:49:50.566Z,30.24
2022-08-02T13:52:37.960Z,30.25
2022-08-02T13:55:24.415Z,30.30
2022-08-02T13:58:10.664Z,30.39
2022-08-02T14:00:56.767Z,30.48
2022-08-02T14:04:07.497Z,30.40
2022-08-02T14:06:49.436Z,30.65
2022-08-02T14:09:38.327Z,30.72
2022-08-02T14:12:26.513Z,30.93
2022-08-02T14:15:12.449Z,31.02
2022-08-02T14:17:58.425Z,31.31
2022-08-02T14:20:45.652Z,31.59
2022-08-02T14:23:50.121Z,31.83
2022-08-02T14:26:36.748Z,32.03
2022-08-02T14:29:23.074Z,32.24
2022-08-02T14:32:08.979Z,32.43
2022-08-02T14:34:56.348Z,32.60
2022-08-02T14:37:42.963Z,32.72
2022-08-02T14:40:31.644Z,32.82
2022-08-02T14:43:37.471Z,33.05
2022-08-02T14:46:24.397Z,33.12
2022-08-02T14:49:11.354Z,33.33
2022-08-02T14:52:01.693Z,33.53
2022-08-02T14:54:48.531Z,33.67
2022-08-02T14:57:35.310Z,33.79
2022-08-02T15:00:22.264Z,34.03
2022-08-02T15:03:10.059Z,34.13
2022-08-02T15:05:56.871Z,34.27
2022-08-02T15:08:43.289Z,34.35
2022-08-02T15:11:30.190Z,34.36
2022-08-02T15:14:35.692Z,34.40
2022-08-02T15:17:22.064Z,34.42
2022-08-02T15:20:24.435Z,34.45
2022-08-02T15:23:13.803Z,34.54
2022-08-02T15:25:59.885Z,34.58
2022-08-02T15:28:46.066Z,34.59
2022-08-02T15:31:33.510Z,34.48
2022-08-02T15:34:19.735Z,34.33
2022-08-02T15:37:05.665Z,34.31
2022-08-02T15:39:51.622Z,34.19
2022-08-02T15:42:37.568Z,34.09
2022-08-02T15:45:25.511Z,34.03
2022-08-02T15:48:12.402Z,33.82
2022-08-02T15:50:58.666Z,33.64
2022-08-02T15:53:44.699Z,33.46
2022-08-02T15:56:35.505Z,33.37
2022-08-02T15:59:21.446Z,33.17
2022-08-02T16:02:08.045Z,33.12
2022-08-02T16:04:54.140Z,32.93
2022-08-02T16:07:41.266Z,32.78
2022-08-02T16:10:27.683Z,32.67
2022-08-02T16:13:32.396Z,32.53
2022-08-02T16:16:18.554Z,32.29
2022-08-02T16:19:38.764Z,32.22
2022-08-02T16:22:12.493Z,31.89
2022-08-02T16:24:58.857Z,31.96
2022-08-02T16:28:06.058Z,31.69
2022-08-02T16:31:09.901Z,31.60
2022-08-02T16:33:57.410Z,31.38
2022-08-02T16:36:44.573Z,31.40
2022-08-02T16:39:30.642Z,31.31
2022-08-02T16:42:16.783Z,31.22
2022-08-02T16:45:11.221Z,31.03
2022-08-02T16:48:03.820Z,31.00
2022-08-02T16:50:51.689Z,30.96
2022-08-02T16:53:38.756Z,30.82
2022-08-02T16:56:43.669Z,30.80
2022-08-02T16:59:42.028Z,30.75
2022-08-02T17:02:29.588Z,30.65
2022-08-02T17:05:15.581Z,30.68
2022-08-02T17:08:15.613Z,30.60
2022-08-02T17:11:03.739Z,30.56
2022-08-02T17:13:50.240Z,30.53
2022-08-02T17:16:36.297Z,30.50
2022-08-02T17:19:22.405Z,30.38
2022-08-02T17:22:10.269Z,30.34
2022-08-02T17:24:59.339Z,30.24
2022-08-02T17:27:46.187Z,30.24
2022-08-02T17:30:32.118Z,30.21
2022-08-02T17:33:18.544Z,30.10
2022-08-02T17:36:05.057Z,30.02
2022-08-02T17:38:51.937Z,29.92
2022-08-02T17:41:49.275Z,29.81
2022-08-02T17:44:38.258Z,29.71
2022-08-02T17:47:30.695Z,29.66
2022-08-02T17:50:17.459Z,29.67
2022-08-02T17:53:06.428Z,29.61
2022-08-02T17:55:52.529Z,29.53
2022-08-02T17:58:38.312Z,29.42
2022-08-02T18:04:44.311Z,29.40
2022-08-02T18:07:49.080Z,29.31
2022-08-02T18:10:39.385Z,29.29
2022-08-02T18:13:25.356Z,29.27
2022-08-02T18:16:21.360Z,29.23
2022-08-02T18:19:16.608Z,29.11
2022-08-02T18:22:03.734Z,29.15
2022-08-02T18:24:49.401Z,29.13
2022-08-02T18:27:35.833Z,29.07
2022-08-02T18:30:28.204Z,29.02
2022-08-02T18:33:56.861Z,28.90
2022-08-02T18:36:25.113Z,28.90
2022-08-02T18:39:11.625Z,28.71
2022-08-02T18:41:58.038Z,28.83
2022-08-02T18:44:45.059Z,28.79
2022-08-02T18:47:33.052Z,28.78
2022-08-02T18:50:20.039Z,28.63
2022-08-02T18:53:06.874Z,28.69
2022-08-02T18:55:59.128Z,28.64
2022-08-02T18:58:49.270Z,28.60
2022-08-02T19:01:45.028Z,28.56
2022-08-02T19:04:34.769Z,28.49
2022-08-02T19:10:27.314Z,28.28
2022-08-02T19:13:17.342Z,28.31
2022-08-02T19:16:03.754Z,28.26
2022-08-02T19:18:51.243Z,28.27
2022-08-02T19:22:17.847Z,28.14
2022-08-02T19:24:43.311Z,28.18
2022-08-02T19:27:32.625Z,28.10
2022-08-02T19:30:21.326Z,28.06
2022-08-02T19:33:11.879Z,28.05
2022-08-02T19:36:11.769Z,28.02
2022-08-02T19:38:59.392Z,27.86
2022-08-02T19:41:46.990Z,27.86
2022-08-02T19:44:33.086Z,27.84
2022-08-02T19:47:19.660Z,27.72
2022-08-02T19:50:06.787Z,27.67
2022-08-02T19:52:55.679Z,27.64
2022-08-02T19:55:59.563Z,27.56
2022-08-02T19:58:48.034Z,27.40
2022-08-02T20:01:38.802Z,27.43
2022-08-02T20:04:27.441Z,27.36
2022-08-02T20:07:13.583Z,27.35
2022-08-02T20:10:12.104Z,27.21
2022-08-02T20:12:57.957Z,27.23
2022-08-02T20:15:56.030Z,27.08
2022-08-02T20:18:43.093Z,27.10
2022-08-02T20:21:36.060Z,26.94
2022-08-02T20:24:26.561Z,26.95
2022-08-02T20:27:16.905Z,26.91
2022-08-02T20:30:08.171Z,26.90
2022-08-02T20:33:02.549Z,26.81
2022-08-02T20:36:04.770Z,26.70
2022-08-02T20:38:51.445Z,26.73
2022-08-02T20:41:45.766Z,26.64
2022-08-02T20:44:34.518Z,26.56
2022-08-02T20:47:38.849Z,26.43
2022-08-02T20:50:44.658Z,26.36
2022-08-02T20:53:31.317Z,26.32
2022-08-02T20:56:17.890Z,26.35
2022-08-02T20:59:15.624Z,26.18
2022-08-02T21:02:02.285Z,26.21
2022-08-02T21:04:48.603Z,26.17
2022-08-02T21:07:37.186Z,26.05
2022-08-02T21:10:24.192Z,26.07
2022-08-02T21:13:18.579Z,26.01
2022-08-02T21:16:08.908Z,25.86
2022-08-02T21:18:59.977Z,25.88
2022-08-02T21:21:46.619Z,25.81
2022-08-02T21:24:33.034Z,25.78
2022-08-02T21:27:53.198Z,25.67
2022-08-02T21:30:26.922Z,25.56
2022-08-02T21:33:22.421Z,25.59
2022-08-02T21:36:09.619Z,25.53
2022-08-02T21:38:57.981Z,25.47
2022-08-02T21:41:46.632Z,25.42
2022-08-02T21:44:32.977Z,25.33
2022-08-02T21:47:27.666Z,25.29
2022-08-02T21:50:16.297Z,25.19
2022-08-02T21:53:02.212Z,25.09
2022-08-02T21:56:00.167Z,25.08
2022-08-02T21:58:47.161Z,25.03
2022-08-02T22:01:35.131Z,24.97
2022-08-02T22:04:21.999Z,24.94
2022-08-02T22:07:08.220Z,24.87
2022-08-02T22:09:55.368Z,24.79
2022-08-02T22:12:41.564Z,24.68
2022-08-02T22:15:36.030Z,24.60
2022-08-02T22:18:29.442Z,24.59
2022-08-02T22:21:16.925Z,24.46
2022-08-02T22:24:05.438Z,24.41
2022-08-02T22:26:59.029Z,24.39
2022-08-02T22:29:44.812Z,24.32
2022-08-02T22:32:51.037Z,24.25
2022-08-02T22:35:37.473Z,24.22
2022-08-02T22:38:26.014Z,24.23
2022-08-02T22:41:15.749Z,24.19
2022-08-02T22:44:02.164Z,24.11
2022-08-02T22:46:50.298Z,24.09
2022-08-02T22:49:58.979Z,24.00
2022-08-02T22:52:46.839Z,23.84
2022-08-02T22:55:41.277Z,23.78
2022-08-02T22:58:27.843Z,23.80
2022-08-02T22:58:41.486Z,29.34
2022-08-02T22:58:58.415Z,28.39
2022-08-02T23:01:14.485Z,23.68
2022-08-02T23:04:00.493Z,23.71
2022-08-02T23:06:46.506Z,23.68
2022-08-02T23:09:32.412Z,23.59
2022-08-02T23:12:21.465Z,23.55
2022-08-02T23:15:08.468Z,23.42
2022-08-02T23:18:13.069Z,23.47
2022-08-02T23:20:59.909Z,23.40
2022-08-02T23:23:45.864Z,23.37
2022-08-02T23:26:31.696Z,23.32
2022-08-02T23:29:19.562Z,23.29
2022-08-02T23:32:05.515Z,23.21
2022-08-02T23:34:52.902Z,23.17
2022-08-02T23:38:00.110Z,23.18
2022-08-02T23:40:45.209Z,22.96
2022-08-02T23:43:31.163Z,23.08
2022-08-02T23:46:17.146Z,22.99
2022-08-02T23:49:03.392Z,22.97
2022-08-02T23:51:50.661Z,22.90
2022-08-02T23:54:36.970Z,22.91
2022-08-02T23:57:23.279Z,22.85
